Time;durP1;ratioP1;P1;durP2;ratioP2;P2;SDS_P1;SDS_P2;PMS_P1;PMS_P2;Temp;Humidity;BMP_temperature;BMP_pressure;BME280_temperature;BME280_humidity;BME280_pressure;Samples;Min_cycle;Max_cycle;Signal;HPM_P1;HPM_P2
2023/05/26 00:00:32;;;;;;;13.27;7.75;;;;;;;10.90;86.39;102182.81;4986454;28;20362;-62
2023/05/26 00:02:58;;;;;;;15.85;8.43;;;;;;;10.91;86.47;102179.38;4982731;28;20108;-62
2023/05/26 00:05:25;;;;;;;12.30;8.35;;;;;;;10.95;86.20;102191.47;4986611;28;20178;-62
2023/05/26 00:07:50;;;;;;;11.63;8.30;;;;;;;10.98;85.62;102178.59;4980189;28;20788;-63
2023/05/26 00:10:16;;;;;;;18.00;9.48;;;;;;;10.98;86.02;102188.94;4979317;28;20027;-62
2023/05/26 00:12:41;;;;;;;12.30;8.25;;;;;;;11.09;85.28;102173.56;4997115;28;20042;-63
2023/05/26 00:15:07;;;;;;;17.55;8.00;;;;;;;11.08;84.38;102183.03;4983733;28;20235;-62
2023/05/26 00:17:32;;;;;;;12.13;8.55;;;;;;;11.13;84.33;102190.84;4981556;28;20471;-62
2023/05/26 00:20:00;;;;;;;12.93;8.32;;;;;;;11.12;84.44;102187.41;4980264;28;20573;-62
2023/05/26 00:22:26;;;;;;;15.85;8.35;;;;;;;11.09;84.58;102186.50;4974564;28;20101;-62
2023/05/26 00:24:52;;;;;;;14.35;7.68;;;;;;;11.09;84.28;102187.38;4969711;28;20049;-62
2023/05/26 00:27:17;;;;;;;14.88;8.48;;;;;;;11.07;83.71;102190.81;4972540;28;20081;-62
2023/05/26 00:29:43;;;;;;;13.95;8.23;;;;;;;11.01;84.01;102195.91;4959130;28;20046;-63
2023/05/26 00:32:08;;;;;;;15.57;8.00;;;;;;;10.96;84.43;102189.78;4960846;28;20035;-62
2023/05/26 00:34:34;;;;;;;15.35;8.27;;;;;;;10.88;84.51;102186.22;4969569;28;20052;-62
2023/05/26 00:37:00;;;;;;;16.23;8.00;;;;;;;10.77;85.10;102183.50;4960957;28;20077;-62
2023/05/26 00:39:27;;;;;;;18.08;9.35;;;;;;;10.66;84.88;102182.47;4961961;28;20042;-62
2023/05/26 00:41:52;;;;;;;20.55;9.07;;;;;;;10.54;85.23;102188.34;4957876;28;20034;-62
2023/05/26 00:44:18;;;;;;;13.70;8.05;;;;;;;10.47;85.51;102188.25;4959408;28;20053;-62
2023/05/26 00:46:43;;;;;;;16.88;8.65;;;;;;;10.40;86.75;102189.00;4965552;28;20078;-62
2023/05/26 00:49:09;;;;;;;14.68;8.48;;;;;;;10.33;86.55;102197.53;4961926;28;20137;-63
2023/05/26 00:51:34;;;;;;;12.52;8.20;;;;;;;10.27;86.77;102189.66;4965003;28;20065;-62
2023/05/26 00:54:00;;;;;;;15.45;9.18;;;;;;;10.20;87.66;102199.03;4958486;28;21444;-62
2023/05/26 00:56:27;;;;;;;12.73;8.45;;;;;;;10.19;87.95;102190.41;4955696;28;20043;-63
2023/05/26 00:58:57;;;;;;;14.32;9.38;;;;;;;10.21;87.75;102196.47;4957203;28;20061;-63
2023/05/26 01:01:23;;;;;;;13.55;8.65;;;;;;;10.20;87.92;102192.16;4960916;28;20940;-62
2023/05/26 01:03:49;;;;;;;17.23;9.63;;;;;;;10.22;88.00;102193.03;4965888;28;20106;-62
2023/05/26 01:06:15;;;;;;;17.08;9.07;;;;;;;10.19;88.29;102185.25;4967846;28;20038;-61
2023/05/26 01:08:40;;;;;;;14.65;8.63;;;;;;;10.18;88.52;102185.19;4966826;28;20034;-62
2023/05/26 01:11:50;;;;;;;17.48;9.95;;;;;;;10.19;88.74;102182.66;4967853;28;20034;-63
2023/05/26 01:14:29;;;;;;;18.25;8.88;;;;;;;10.17;88.28;102179.19;4966356;28;20129;-63
2023/05/26 01:17:03;;;;;;;12.82;9.15;;;;;;;10.14;88.17;102186.03;4959769;28;20045;-62
2023/05/26 01:19:53;;;;;;;10.85;7.93;;;;;;;10.07;87.77;102190.22;4960110;28;20054;-63
2023/05/26 01:22:52;;;;;;;13.23;8.70;;;;;;;10.03;88.72;102191.00;4961228;28;20034;-63
2023/05/26 01:25:44;;;;;;;15.88;9.10;;;;;;;10.02;88.80;102194.44;4956209;28;20106;-62
2023/05/26 01:28:16;;;;;;;13.30;9.43;;;;;;;9.99;88.87;102189.22;4959015;28;20058;-63
2023/05/26 01:30:43;;;;;;;15.02;9.27;;;;;;;9.99;88.95;102191.81;4959586;28;20035;-62
2023/05/26 01:33:08;;;;;;;14.27;9.13;;;;;;;9.99;88.83;102193.50;4958093;28;21344;-62
2023/05/26 01:35:34;;;;;;;15.43;8.90;;;;;;;9.98;89.39;102196.94;4979009;28;20050;-62
2023/05/26 01:38:00;;;;;;;19.88;9.60;;;;;;;9.95;89.74;102195.16;4975878;28;20412;-62
2023/05/26 01:40:27;;;;;;;17.70;9.40;;;;;;;9.94;90.10;102196.00;4974067;28;20046;-62
2023/05/26 01:43:05;;;;;;;20.63;9.65;;;;;;;9.93;90.15;102202.03;4976516;28;20034;-61
2023/05/26 01:45:36;;;;;;;16.27;9.10;;;;;;;9.91;89.89;102205.44;4976480;28;20054;-62
2023/05/26 01:48:03;;;;;;;24.80;9.82;;;;;;;9.93;89.77;102203.75;4979048;28;20531;-61
2023/05/26 01:50:43;;;;;;;19.73;9.60;;;;;;;9.88;89.77;102206.22;4976597;28;20781;-61
2023/05/26 01:53:12;;;;;;;18.52;9.75;;;;;;;9.85;89.94;102203.59;4976416;28;20031;-61
2023/05/26 01:55:38;;;;;;;27.17;10.30;;;;;;;9.86;89.80;102213.09;4975362;28;20085;-62
2023/05/26 01:58:05;;;;;;;26.75;9.98;;;;;;;9.85;89.02;102218.25;4974348;28;20076;-62
2023/05/26 02:00:30;;;;;;;21.63;9.18;;;;;;;9.88;88.56;102210.56;5011507;28;20049;-62
2023/05/26 02:02:56;;;;;;;22.90;9.05;;;;;;;9.84;88.39;102217.38;4980923;28;20797;-61
2023/05/26 02:05:21;;;;;;;18.25;9.23;;;;;;;9.83;88.90;102223.38;4978045;28;20088;-62
2023/05/26 02:07:47;;;;;;;19.17;8.50;;;;;;;9.82;88.50;102221.66;4979691;28;20038;-62
2023/05/26 02:10:12;;;;;;;18.48;8.40;;;;;;;9.79;88.35;102221.59;4981068;28;20408;-62
2023/05/26 02:12:37;;;;;;;18.45;8.90;;;;;;;9.77;88.38;102217.22;4980970;28;20209;-62
2023/05/26 02:15:03;;;;;;;20.67;9.48;;;;;;;9.75;88.16;102209.44;4974515;28;20034;-62
2023/05/26 02:17:29;;;;;;;20.88;8.57;;;;;;;9.71;87.62;102210.22;4983592;28;20107;-62
2023/05/26 02:19:54;;;;;;;23.58;9.02;;;;;;;9.64;88.36;102213.56;4983852;28;20122;-62
2023/05/26 02:22:20;;;;;;;20.35;9.45;;;;;;;9.58;88.34;102213.44;4981376;28;20031;-62
2023/05/26 02:24:45;;;;;;;21.80;9.02;;;;;;;9.51;88.52;102212.41;4981934;28;20030;-61
2023/05/26 02:27:10;;;;;;;25.55;8.43;;;;;;;9.48;88.17;102207.19;4983217;28;20057;-62
2023/05/26 02:29:36;;;;;;;21.75;9.27;;;;;;;9.46;87.41;102211.47;4977413;28;20640;-62
2023/05/26 02:32:01;;;;;;;24.35;8.88;;;;;;;9.41;87.53;102209.63;4983749;28;20046;-61
2023/05/26 02:34:26;;;;;;;22.88;8.88;;;;;;;9.40;87.63;102211.34;4983726;28;20046;-62
2023/05/26 02:36:55;;;;;;;26.67;8.40;;;;;;;9.35;87.90;102209.50;4983426;28;20539;-62
2023/05/26 02:39:23;;;;;;;23.98;10.15;;;;;;;9.34;87.46;102213.81;4986863;28;20166;-62
2023/05/26 02:41:49;;;;;;;25.70;7.82;;;;;;;9.29;87.55;102215.41;4979318;28;20129;-62
2023/05/26 02:44:14;;;;;;;27.70;7.60;;;;;;;9.24;87.75;102213.59;4982941;28;20479;-61
2023/05/26 02:46:42;;;;;;;27.00;9.25;;;;;;;9.19;87.74;102210.06;4986191;28;20038;-62
2023/05/26 02:49:08;;;;;;;17.95;7.65;;;;;;;9.11;87.19;102208.16;4980398;28;20388;-61
2023/05/26 02:51:35;;;;;;;27.90;8.55;;;;;;;9.07;87.53;102208.97;4984667;28;20101;-62
2023/05/26 02:54:00;;;;;;;24.60;7.53;;;;;;;9.03;87.24;102217.47;4981490;28;20046;-62
2023/05/26 02:56:26;;;;;;;24.45;7.75;;;;;;;9.00;87.15;102214.81;4977812;28;20535;-62
2023/05/26 02:58:51;;;;;;;24.58;7.10;;;;;;;8.98;87.20;102216.50;4964481;28;20038;-62
2023/05/26 03:01:17;;;;;;;31.00;6.93;;;;;;;9.05;86.70;102218.38;4980333;28;20035;-62
2023/05/26 03:03:42;;;;;;;23.80;6.90;;;;;;;9.10;87.03;102221.06;4977552;28;20038;-62
2023/05/26 03:06:08;;;;;;;22.00;6.65;;;;;;;9.10;86.84;102219.34;4980531;28;20559;-61
2023/05/26 03:08:34;;;;;;;29.92;7.20;;;;;;;9.12;86.49;102220.25;4975341;28;20157;-62
2023/05/26 03:10:59;;;;;;;17.98;5.70;;;;;;;9.13;86.93;102219.41;4969952;28;20090;-61
2023/05/26 03:13:25;;;;;;;23.27;7.38;;;;;;;9.13;87.47;102211.69;4976016;28;20051;-62
2023/05/26 03:15:50;;;;;;;18.23;5.85;;;;;;;9.15;86.35;102219.44;4982231;28;20385;-62
2023/05/26 03:18:16;;;;;;;21.23;6.00;;;;;;;9.18;86.89;102218.63;4973920;28;20038;-61
2023/05/26 03:20:43;;;;;;;24.00;6.95;;;;;;;9.24;86.57;102206.72;4974923;28;20051;-62
2023/05/26 03:23:08;;;;;;;18.70;6.90;;;;;;;9.33;86.27;102206.91;4982116;28;20042;-61
2023/05/26 03:25:33;;;;;;;22.30;6.50;;;;;;;9.36;85.95;102206.09;4979523;28;20039;-62
2023/05/26 03:27:59;;;;;;;22.55;6.28;;;;;;;9.40;85.41;102201.03;4973458;28;20038;-61
2023/05/26 03:30:24;;;;;;;26.02;6.63;;;;;;;9.41;86.14;102207.91;4977846;28;20545;-62
2023/05/26 03:32:50;;;;;;;23.63;7.00;;;;;;;9.42;85.86;102208.78;4979781;28;20658;-62
2023/05/26 03:35:15;;;;;;;22.80;6.80;;;;;;;9.42;85.39;102208.78;4977795;28;20054;-61
2023/05/26 03:37:41;;;;;;;19.30;5.60;;;;;;;9.43;85.88;102207.97;4975615;28;20123;-62
2023/05/26 03:40:06;;;;;;;20.45;5.55;;;;;;;9.42;85.10;102213.94;5005706;28;20042;-63
2023/05/26 03:42:32;;;;;;;25.80;6.47;;;;;;;9.42;85.36;102209.66;4969206;28;20388;-62
2023/05/26 03:44:57;;;;;;;25.40;6.57;;;;;;;9.42;85.59;102207.09;4978495;28;20043;-62
2023/05/26 03:47:23;;;;;;;15.27;5.93;;;;;;;9.43;85.66;102205.38;4983012;28;20050;-62
2023/05/26 03:49:48;;;;;;;19.17;5.93;;;;;;;9.43;85.87;102208.84;4978229;28;20043;-63
2023/05/26 03:52:13;;;;;;;23.95;6.55;;;;;;;9.44;85.14;102209.69;4976762;28;20085;-62
2023/05/26 03:54:39;;;;;;;23.15;5.57;;;;;;;9.47;85.66;102213.19;4980397;28;20026;-62
2023/05/26 03:57:05;;;;;;;27.55;6.45;;;;;;;9.48;85.38;102214.94;4972778;28;20077;-62
2023/05/26 03:59:31;;;;;;;18.60;5.78;;;;;;;9.51;85.24;102208.97;4971419;28;20128;-62
2023/05/26 04:01:57;;;;;;;29.23;6.88;;;;;;;9.57;84.79;102210.00;4978795;28;20082;-61
2023/05/26 04:04:23;;;;;;;18.73;6.18;;;;;;;9.63;84.17;102209.22;4978999;28;20115;-61
2023/05/26 04:06:48;;;;;;;24.85;6.60;;;;;;;9.70;84.60;102211.09;4981138;28;20026;-61
2023/05/26 04:09:14;;;;;;;28.65;7.90;;;;;;;9.75;83.70;102209.44;4977096;28;20097;-62
2023/05/26 04:11:39;;;;;;;22.67;6.35;;;;;;;9.83;84.06;102207.88;4973009;28;20092;-62
2023/05/26 04:14:06;;;;;;;20.58;5.82;;;;;;;9.89;83.50;102209.69;4978287;28;20042;-62
2023/05/26 04:16:32;;;;;;;24.52;5.82;;;;;;;9.92;83.20;102208.03;4980433;28;20046;-61
2023/05/26 04:18:57;;;;;;;26.27;7.00;;;;;;;9.98;83.03;102205.56;4979795;28;20042;-61
2023/05/26 04:21:23;;;;;;;28.70;7.45;;;;;;;10.02;82.43;102211.66;4984073;28;20175;-61
2023/05/26 04:23:51;;;;;;;34.88;7.30;;;;;;;10.07;82.97;102220.34;4973892;28;20385;-61
2023/05/26 04:26:17;;;;;;;28.05;5.50;;;;;;;10.11;82.97;102215.25;4974487;28;20085;-61
2023/05/26 04:28:44;;;;;;;36.13;6.28;;;;;;;10.16;82.46;102218.78;4966779;28;20042;-61
2023/05/26 04:31:09;;;;;;;26.65;6.63;;;;;;;10.22;82.17;102215.41;4980811;28;20117;-61
2023/05/26 04:33:39;;;;;;;29.30;6.32;;;;;;;10.22;82.32;102218.88;4979690;28;20045;-62
2023/05/26 04:36:08;;;;;;;25.80;6.38;;;;;;;10.29;82.58;102218.97;4977172;28;20066;-62
2023/05/26 04:38:41;;;;;;;24.55;6.20;;;;;;;10.31;81.73;102212.09;4976151;28;20057;-62
2023/05/26 04:41:07;;;;;;;21.30;5.82;;;;;;;10.33;82.01;102220.78;4973812;28;20708;-62
2023/05/26 04:43:35;;;;;;;24.38;5.88;;;;;;;10.39;81.50;102220.84;4978976;28;20046;-62
2023/05/26 04:46:02;;;;;;;22.85;6.20;;;;;;;10.43;81.24;102220.94;4975650;28;20053;-61
2023/05/26 04:48:28;;;;;;;17.42;5.72;;;;;;;10.43;81.41;102227.81;4974777;28;20092;-62
2023/05/26 04:50:53;;;;;;;31.83;5.90;;;;;;;10.50;81.09;102230.53;4978295;28;20160;-62
2023/05/26 04:53:20;;;;;;;24.08;6.15;;;;;;;10.56;81.14;102225.47;4973483;28;20058;-62
2023/05/26 04:55:45;;;;;;;24.48;6.35;;;;;;;10.59;80.83;102228.09;4977315;28;20072;-62
2023/05/26 04:58:11;;;;;;;27.38;6.95;;;;;;;10.63;81.24;102235.03;4977201;28;20146;-62
2023/05/26 05:00:37;;;;;;;26.77;6.70;;;;;;;10.64;80.87;102244.53;4970803;28;20066;-62
2023/05/26 05:03:03;;;;;;;24.42;6.03;;;;;;;10.70;80.67;102238.56;4976643;28;20401;-62
2023/05/26 05:05:29;;;;;;;24.95;5.85;;;;;;;10.64;80.35;102241.94;4973680;28;20039;-62
2023/05/26 05:07:55;;;;;;;28.75;7.20;;;;;;;10.67;80.91;102243.69;4981218;28;20049;-61
2023/05/26 05:10:20;;;;;;;23.80;5.80;;;;;;;10.68;80.14;102243.72;4983675;28;20030;-61
2023/05/26 05:12:46;;;;;;;29.13;7.13;;;;;;;10.70;80.53;102251.50;4976422;28;20184;-62
2023/05/26 05:15:11;;;;;;;26.10;6.50;;;;;;;10.73;80.19;102256.72;4977900;28;20415;-62
2023/05/26 05:17:38;;;;;;;24.42;5.85;;;;;;;10.83;80.03;102249.97;4978745;28;20038;-62
2023/05/26 05:20:04;;;;;;;27.73;5.82;;;;;;;10.84;80.64;102249.09;4976268;28;20038;-61
2023/05/26 05:22:29;;;;;;;31.15;6.82;;;;;;;10.90;80.36;102247.47;4979098;28;20042;-64
2023/05/26 05:24:55;;;;;;;32.28;7.10;;;;;;;10.95;79.76;102261.34;4975591;28;20791;-61
2023/05/26 05:27:20;;;;;;;34.72;6.63;;;;;;;11.02;80.18;102264.88;4971896;28;20180;-62
2023/05/26 05:29:46;;;;;;;28.30;7.10;;;;;;;11.00;79.59;102266.59;4970890;28;20579;-62
2023/05/26 05:32:11;;;;;;;24.52;6.50;;;;;;;10.97;79.37;102270.00;4975486;28;20042;-61
2023/05/26 05:34:37;;;;;;;23.67;6.22;;;;;;;11.02;79.41;102273.53;4977836;28;20052;-62
2023/05/26 05:37:02;;;;;;;26.67;7.18;;;;;;;11.12;79.09;102275.41;4968924;28;20730;-62
2023/05/26 05:39:27;;;;;;;25.02;6.20;;;;;;;11.21;79.33;102280.69;4978316;28;20100;-62
2023/05/26 05:41:53;;;;;;;29.33;6.00;;;;;;;11.26;78.81;102273.84;4978858;28;20053;-62
2023/05/26 05:44:18;;;;;;;32.20;7.20;;;;;;;11.33;79.20;102275.69;4981808;28;20188;-62
2023/05/26 05:46:44;;;;;;;33.25;8.32;;;;;;;11.29;77.94;102263.53;4981576;28;20045;-62
2023/05/26 05:49:09;;;;;;;20.77;6.35;;;;;;;11.34;78.20;102274.81;4980193;28;20417;-61
2023/05/26 05:51:35;;;;;;;23.67;6.63;;;;;;;11.36;78.25;102277.44;4980812;28;20046;-62
2023/05/26 05:54:01;;;;;;;22.08;7.20;;;;;;;11.28;78.85;102291.97;4974502;28;20042;-62
2023/05/26 05:56:26;;;;;;;32.50;7.40;;;;;;;11.34;78.57;102290.34;4979519;28;20496;-62
2023/05/26 05:58:51;;;;;;;23.20;6.68;;;;;;;11.41;77.89;102277.47;4982132;28;20054;-63
2023/05/26 06:01:17;;;;;;;27.83;7.80;;;;;;;11.51;76.56;102269.88;4974378;28;20037;-63
2023/05/26 06:03:42;;;;;;;22.45;7.13;;;;;;;11.53;76.69;102278.53;4975663;28;20034;-62
2023/05/26 06:06:08;;;;;;;23.02;7.40;;;;;;;11.59;76.19;102272.56;4971777;28;20520;-62
2023/05/26 06:08:34;;;;;;;29.88;8.60;;;;;;;11.48;76.12;102284.50;4978870;28;20045;-62
2023/05/26 06:10:59;;;;;;;28.58;7.70;;;;;;;11.48;75.96;102274.16;4978410;28;20034;-62
2023/05/26 06:13:24;;;;;;;25.67;7.80;;;;;;;11.60;76.57;102288.13;4978146;28;20053;-62
2023/05/26 06:15:50;;;;;;;26.33;9.07;;;;;;;11.64;76.18;102278.66;4977448;28;20045;-62
2023/05/26 06:18:15;;;;;;;21.83;6.50;;;;;;;11.69;75.55;102277.00;4975612;28;20065;-62
2023/05/26 06:20:41;;;;;;;28.35;8.23;;;;;;;11.71;76.04;102285.66;4978000;28;20046;-62
2023/05/26 06:23:06;;;;;;;30.08;8.48;;;;;;;11.72;75.68;102282.22;4975724;28;20068;-62
2023/05/26 06:25:31;;;;;;;27.73;7.80;;;;;;;11.74;75.25;102272.72;4982664;28;20687;-61
2023/05/26 06:27:56;;;;;;;31.05;9.13;;;;;;;11.73;75.46;102283.94;4981558;28;20034;-62
2023/05/26 06:30:23;;;;;;;24.23;8.40;;;;;;;11.67;75.54;102283.84;4976012;28;20038;-62
2023/05/26 06:32:48;;;;;;;34.85;8.98;;;;;;;11.73;76.18;102289.09;4972458;28;20742;-62
2023/05/26 06:35:14;;;;;;;25.67;8.40;;;;;;;11.87;76.12;102287.56;4982128;28;20053;-62
2023/05/26 06:37:39;;;;;;;29.70;8.75;;;;;;;11.85;75.42;102286.66;4982068;28;20042;-64
2023/05/26 06:40:05;;;;;;;27.63;8.40;;;;;;;12.02;75.20;102277.31;4981109;28;20045;-62
2023/05/26 06:42:30;;;;;;;35.75;9.63;;;;;;;12.07;75.07;102270.47;4981822;28;20038;-62
2023/05/26 06:44:56;;;;;;;26.25;7.88;;;;;;;12.14;74.77;102280.03;4981872;28;20363;-63
2023/05/26 06:47:23;;;;;;;32.42;9.32;;;;;;;12.20;74.18;102274.03;4984754;28;20068;-62
2023/05/26 06:49:49;;;;;;;28.33;9.20;;;;;;;12.31;74.59;102282.81;4980728;28;20529;-63
2023/05/26 06:52:16;;;;;;;31.65;9.48;;;;;;;12.15;74.16;102283.50;4981024;28;20040;-62
2023/05/26 06:54:41;;;;;;;24.55;8.95;;;;;;;12.28;74.14;102282.78;4978582;28;20062;-62
2023/05/26 06:57:06;;;;;;;33.80;9.80;;;;;;;12.34;74.11;102283.69;4980005;28;20122;-63
2023/05/26 06:59:32;;;;;;;27.38;9.63;;;;;;;12.37;74.17;102291.50;4983533;28;20072;-62
2023/05/26 07:01:57;;;;;;;27.00;9.23;;;;;;;12.50;74.01;102292.44;4980038;28;20038;-63
2023/05/26 07:04:22;;;;;;;30.65;9.88;;;;;;;12.61;72.54;102269.22;4982745;28;20042;-63
2023/05/26 07:06:48;;;;;;;27.73;9.73;;;;;;;12.70;72.78;102277.91;4981103;28;20030;-62
2023/05/26 07:09:13;;;;;;;29.92;9.20;;;;;;;12.81;72.50;102278.00;4986734;28;20057;-62
2023/05/26 07:11:38;;;;;;;29.48;9.68;;;;;;;13.02;72.78;102285.94;4982335;28;20035;-63
2023/05/26 07:14:04;;;;;;;28.98;9.38;;;;;;;12.88;71.92;102280.63;4978763;28;20076;-63
2023/05/26 07:16:29;;;;;;;30.48;9.68;;;;;;;12.94;71.94;102277.19;4984060;28;20050;-62
2023/05/26 07:18:54;;;;;;;33.65;9.95;;;;;;;13.01;71.58;102271.22;4976891;28;20562;-63
2023/05/26 07:21:21;;;;;;;30.83;10.02;;;;;;;13.06;71.85;102277.28;4987152;28;20046;-62
2023/05/26 07:23:48;;;;;;;32.40;9.98;;;;;;;13.09;72.06;102282.50;4978024;28;20129;-62
2023/05/26 07:26:13;;;;;;;33.67;9.20;;;;;;;13.09;71.84;102284.25;4974216;28;20050;-62
2023/05/26 07:28:40;;;;;;;28.55;10.02;;;;;;;13.14;71.46;102278.22;4975811;28;20176;-62
2023/05/26 07:31:06;;;;;;;29.95;9.85;;;;;;;12.97;71.31;102275.50;4979967;28;20027;-63
2023/05/26 07:33:31;;;;;;;34.15;10.35;;;;;;;13.07;71.59;102278.16;4981548;28;20073;-63
2023/05/26 07:35:57;;;;;;;23.77;9.13;;;;;;;13.28;71.64;102275.69;4982944;28;20133;-62
2023/05/26 07:38:22;;;;;;;29.35;10.77;;;;;;;13.33;71.24;102276.56;4981807;28;20443;-62
2023/05/26 07:40:48;;;;;;;32.05;11.02;;;;;;;13.35;71.01;102274.88;4978486;28;20038;-62
2023/05/26 07:43:13;;;;;;;24.20;8.80;;;;;;;13.57;70.79;102263.69;4979176;28;20120;-62
2023/05/26 07:45:39;;;;;;;28.75;10.15;;;;;;;13.66;69.96;102252.44;4984467;28;20061;-62
2023/05/26 07:48:04;;;;;;;25.25;8.65;;;;;;;13.77;70.34;102258.56;4982079;28;20073;-61
2023/05/26 07:50:30;;;;;;;30.55;10.00;;;;;;;13.74;70.03;102261.16;4983385;28;20458;-62
2023/05/26 07:52:56;;;;;;;20.38;10.23;;;;;;;13.83;69.76;102250.78;4986144;28;20068;-62
2023/05/26 07:55:21;;;;;;;32.25;10.60;;;;;;;13.90;69.27;102240.38;4980192;28;20129;-62
2023/05/26 07:57:47;;;;;;;33.90;11.00;;;;;;;13.85;69.48;102241.25;4982948;28;20317;-63
2023/05/26 08:00:12;;;;;;;29.98;10.55;;;;;;;14.01;69.44;102249.03;4984485;28;20042;-61
2023/05/26 08:02:38;;;;;;;30.73;9.52;;;;;;;14.16;68.80;102236.94;4984599;28;20495;-62
2023/05/26 08:05:04;;;;;;;31.27;9.48;;;;;;;14.21;68.20;102233.47;4979023;28;20043;-62
2023/05/26 08:07:30;;;;;;;36.03;10.52;;;;;;;14.34;68.53;102235.19;4976725;28;20045;-63
2023/05/26 08:09:55;;;;;;;32.83;10.98;;;;;;;14.48;68.15;102223.06;4981315;28;20121;-62
2023/05/26 08:12:21;;;;;;;35.22;10.55;;;;;;;14.64;68.34;102231.72;4981972;28;20042;-62
2023/05/26 08:14:48;;;;;;;27.00;9.85;;;;;;;14.68;67.27;102223.06;4984376;28;20038;-62
2023/05/26 08:17:13;;;;;;;33.38;9.60;;;;;;;14.76;67.33;102230.81;4980850;28;20046;-62
2023/05/26 08:19:39;;;;;;;27.30;9.13;;;;;;;14.87;66.67;102213.47;4980410;28;20042;-62
2023/05/26 08:22:04;;;;;;;29.58;10.70;;;;;;;14.86;66.56;102211.72;4973953;28;20038;-61
2023/05/26 08:24:29;;;;;;;32.55;10.38;;;;;;;14.97;66.27;102200.41;4977294;28;20038;-62
2023/05/26 08:26:55;;;;;;;29.02;9.50;;;;;;;15.07;66.35;102198.63;4983024;28;20046;-61
2023/05/26 08:29:22;;;;;;;30.90;9.10;;;;;;;15.10;65.85;102194.28;4976798;28;20039;-62
2023/05/26 08:31:47;;;;;;;29.27;9.63;;;;;;;15.30;65.41;102198.53;4979296;28;20085;-61
2023/05/26 08:34:13;;;;;;;20.92;9.32;;;;;;;15.36;65.91;102204.56;4981462;28;20035;-62
2023/05/26 08:36:38;;;;;;;27.83;9.95;;;;;;;15.40;64.89;102168.94;4981589;28;20038;-62
2023/05/26 08:39:04;;;;;;;25.67;9.80;;;;;;;15.39;65.48;102201.94;4985372;28;20077;-62
2023/05/26 08:41:38;;;;;;;35.05;9.70;;;;;;;15.51;65.10;102177.56;4975539;28;20039;-62
2023/05/26 08:44:05;;;;;;;28.73;9.52;;;;;;;15.64;65.24;102190.53;4976270;28;20130;-62
2023/05/26 08:46:31;;;;;;;31.73;9.25;;;;;;;15.69;64.17;102167.94;4984444;28;20593;-62
2023/05/26 08:48:57;;;;;;;29.38;9.57;;;;;;;15.78;64.15;102167.00;4980429;28;20026;-62
2023/05/26 08:51:23;;;;;;;30.13;9.52;;;;;;;15.84;63.89;102158.25;4980235;28;20041;-62
2023/05/26 08:53:49;;;;;;;32.53;9.57;;;;;;;15.98;63.94;102154.66;4973991;28;20034;-61
2023/05/26 08:56:15;;;;;;;29.73;9.57;;;;;;;15.98;63.72;102161.59;4990478;28;20100;-62
2023/05/26 08:58:43;;;;;;;28.15;10.07;;;;;;;16.09;63.30;102144.97;4974468;28;20061;-62
2023/05/26 09:01:08;;;;;;;27.02;9.38;;;;;;;16.24;63.41;102144.84;4975544;28;20030;-62
2023/05/26 09:03:33;;;;;;;31.90;10.02;;;;;;;16.28;63.00;102145.69;4982875;28;20045;-62
2023/05/26 09:05:59;;;;;;;31.20;9.68;;;;;;;16.26;63.07;102139.63;4974296;28;20153;-62
2023/05/26 09:08:24;;;;;;;30.98;9.43;;;;;;;16.25;62.38;102140.50;4977471;28;20517;-61
2023/05/26 09:10:49;;;;;;;26.48;9.35;;;;;;;16.32;62.89;102147.38;4978049;28;20560;-62
2023/05/26 09:13:15;;;;;;;30.70;8.63;;;;;;;16.26;62.58;102150.06;4972879;28;20038;-62
2023/05/26 09:15:41;;;;;;;25.45;9.00;;;;;;;16.40;62.16;102152.53;4982262;28;20066;-62
2023/05/26 09:18:08;;;;;;;31.60;9.50;;;;;;;16.50;61.77;102151.56;4978788;28;20034;-62
2023/05/26 09:20:38;;;;;;;26.67;9.52;;;;;;;16.66;61.48;102146.13;4980855;28;20070;-62
2023/05/26 09:23:04;;;;;;;26.40;9.35;;;;;;;16.80;62.63;102167.75;4983100;28;20121;-62
2023/05/26 09:25:42;;;;;;;31.95;9.75;;;;;;;16.94;61.55;102156.28;4977571;28;20043;-62
2023/05/26 09:28:11;;;;;;;38.28;9.75;;;;;;;16.99;60.81;102144.91;4979002;28;20683;-62
2023/05/26 09:30:37;;;;;;;27.13;8.95;;;;;;;17.18;60.55;102142.91;4975334;28;20619;-62
2023/05/26 09:33:04;;;;;;;36.63;9.85;;;;;;;17.17;60.40;102147.28;4976058;28;20309;-62
2023/05/26 09:35:41;;;;;;;29.98;8.98;;;;;;;17.09;59.56;102136.06;4981647;28;20300;-60
2023/05/26 09:38:09;;;;;;;24.92;8.90;;;;;;;17.17;60.14;102147.28;4983100;28;20088;-61
2023/05/26 09:40:34;;;;;;;26.00;8.75;;;;;;;17.15;59.32;102130.75;4982760;28;20042;-62
2023/05/26 09:43:00;;;;;;;25.15;8.45;;;;;;;17.17;60.20;102149.00;4984702;28;20034;-61
2023/05/26 09:45:33;;;;;;;26.75;8.88;;;;;;;17.31;59.79;102150.56;4982205;28;20810;-63
2023/05/26 09:47:59;;;;;;;27.58;8.98;;;;;;;17.29;59.68;102130.56;4976220;28;20941;-61
2023/05/26 09:50:25;;;;;;;26.10;8.18;;;;;;;17.31;59.51;102124.41;4983548;28;20152;-62
2023/05/26 09:52:50;;;;;;;28.40;8.95;;;;;;;17.56;59.62;102129.28;4983438;28;20038;-62
2023/05/26 09:55:17;;;;;;;29.60;8.82;;;;;;;17.45;58.90;102119.00;4977959;28;20034;-61
2023/05/26 09:57:45;;;;;;;30.08;9.68;;;;;;;17.38;58.36;102113.00;4979150;28;20157;-61
2023/05/26 10:00:14;;;;;;;28.58;10.02;;;;;;;17.41;58.49;102112.09;4979728;28;20565;-62
2023/05/26 10:02:40;;;;;;;25.33;9.07;;;;;;;17.67;58.56;102112.53;4984584;28;20046;-62
2023/05/26 10:05:06;;;;;;;31.88;9.13;;;;;;;17.88;58.41;102113.97;4977637;28;20050;-61
2023/05/26 10:07:32;;;;;;;22.65;8.18;;;;;;;17.90;56.99;102088.63;4982233;28;20041;-62
2023/05/26 10:09:59;;;;;;;22.48;7.55;;;;;;;17.85;57.74;102096.56;4969803;28;20048;-62
2023/05/26 10:12:33;;;;;;;20.80;8.02;;;;;;;17.98;56.94;102089.38;4962999;28;20046;-61
2023/05/26 10:15:00;;;;;;;29.15;8.68;;;;;;;18.19;56.59;102091.63;4964438;28;20108;-61
2023/05/26 10:17:26;;;;;;;21.13;8.35;;;;;;;18.18;56.69;102083.78;4964408;28;20549;-61
2023/05/26 10:19:57;;;;;;;32.72;9.38;;;;;;;18.21;57.04;102092.44;4966083;28;20047;-62
2023/05/26 10:22:35;;;;;;;26.83;8.35;;;;;;;18.41;56.75;102085.06;4969736;28;20030;-61
2023/05/26 10:25:06;;;;;;;20.60;7.78;;;;;;;18.40;55.85;102070.22;4967997;28;20132;-62
2023/05/26 10:27:44;;;;;;;23.90;8.07;;;;;;;18.57;56.29;102084.75;4962855;28;20050;-62
2023/05/26 10:30:15;;;;;;;24.50;8.15;;;;;;;18.80;55.21;102061.56;4962833;28;20116;-61
2023/05/26 10:32:41;;;;;;;21.88;7.70;;;;;;;18.85;54.96;102067.63;4978078;28;20038;-61
2023/05/26 10:35:36;;;;;;;23.13;8.20;;;;;;;18.80;54.44;102054.56;4973496;28;20080;-61
2023/05/26 10:38:01;;;;;;;23.45;8.57;;;;;;;19.03;54.04;102047.09;4963637;28;20141;-61
2023/05/26 10:40:36;;;;;;;28.33;8.00;;;;;;;19.54;53.27;102033.63;4971884;28;20038;-62
2023/05/26 10:43:11;;;;;;;19.85;7.15;;;;;;;19.98;52.25;102012.34;4981629;28;20054;-61
2023/05/26 10:45:42;;;;;;;;;;;;;;;20.10;50.83;102001.53;4967680;28;20050;-61
2023/05/26 10:48:10;;;;;;;20.85;7.03;;;;;;;19.97;51.89;102025.53;4967117;28;20460;-62
2023/05/26 10:50:54;;;;;;;27.73;8.50;;;;;;;20.01;51.88;102024.53;4968302;28;20038;-62
2023/05/26 10:53:22;;;;;;;23.85;8.05;;;;;;;20.17;50.96;102007.47;4962716;28;20074;-62
2023/05/26 10:56:05;;;;;;;23.80;8.50;;;;;;;20.22;50.78;102013.44;4965723;28;20113;-62
2023/05/26 10:58:38;;;;;;;21.10;7.72;;;;;;;20.35;50.63;101999.06;4962786;28;20043;-62
2023/05/26 11:01:08;;;;;;;31.70;8.80;;;;;;;20.35;50.25;101992.94;4964554;28;20086;-61
2023/05/26 11:03:47;;;;;;;25.42;7.88;;;;;;;20.42;49.71;101987.44;4962890;28;20030;-62
2023/05/26 11:06:15;;;;;;;22.40;7.80;;;;;;;20.17;49.92;101996.97;4966496;28;20041;-62
2023/05/26 11:08:48;;;;;;;21.65;7.85;;;;;;;20.11;51.03;102016.38;4964993;28;20041;-62
2023/05/26 11:11:26;;;;;;;23.33;8.05;;;;;;;20.42;50.81;102012.88;4962318;28;20121;-63
2023/05/26 11:14:02;;;;;;;21.85;8.07;;;;;;;20.33;50.31;102005.28;4983881;28;20042;-61
2023/05/26 11:16:27;;;;;;;24.75;7.85;;;;;;;20.13;50.64;102011.94;4967848;28;20045;-62
2023/05/26 11:19:07;;;;;;;28.20;7.38;;;;;;;20.34;50.01;102004.34;4969749;28;20034;-63